Latest Weather Observations for Mount Ginini

IDN60801

Issued at 11:22 am EST Monday 21 May 2018 (issued every 10 minutes, with the page automatically refreshed every 10 minutes)

About weather observations | Map of weather stations | Latest weather observations for NSW | Other Formats
Station Details ID: 070349 Name: MOUNT GININI AWS Lat: -35.53 Lon: 148.77 Height: 1760.0 m
Data from the previous 72 hours. | See also: Recent months at Mount Ginini
Date/Time
EST
Temp
°C
App
Temp
°C
Dew
Point
°C
Rel
Hum
%
Delta-T
°C
Wind Press
QNH
hPa
Press
MSL
hPa
Rain since
9am
mm
Dir  Spd
km/h
Gust
km/h
Spd
kts
Gust
kts
21/11:00am 2.2 -3.3 1.8 97 0.2 WSW 20 50 11 27 - - 0.0
21/10:30am 2.2 -3.3 1.8 97 0.2 WSW 20 43 11 23 - - 0.0
21/10:00am 2.3 -3.6 1.9 97 0.2 WSW 22 41 12 22 - - 0.0
21/09:30am 1.8 -3.8 1.4 97 0.2 SW 20 41 11 22 - - 0.0
21/09:00am 1.8 -3.8 1.4 97 0.2 WSW 20 43 11 23 - - 0.0
21/08:30am 1.5 -5.6 1.1 97 0.2 WSW 28 65 15 35 - - 0.0
21/08:00am 1.5 -6.0 1.1 97 0.2 WSW 30 59 16 32 - - 0.0
21/07:30am 1.4 -6.1 1.0 97 0.2 WSW 30 57 16 31 - - 0.0
21/07:00am 1.3 -6.2 0.9 97 0.2 WSW 30 59 16 32 - - 0.0
21/06:30am 1.5 -5.6 1.1 97 0.2 WSW 28 50 15 27 - - 0.0
21/06:04am 1.7 -5.4 1.3 97 0.2 WSW 28 56 15 30 - - 0.0
21/06:00am 1.7 -4.6 1.3 97 0.2 WSW 24 54 13 29 - - 0.0
21/05:43am 1.9 -5.2 1.5 97 0.2 WSW 28 52 15 28 - - 0.0
21/05:30am 2.0 -4.7 1.6 97 0.2 WSW 26 56 14 30 - - 0.0
21/05:00am 2.0 -6.0 1.6 97 0.2 WSW 33 63 18 34 - - 0.0
21/04:30am 2.2 -5.2 1.8 97 0.2 WSW 30 61 16 33 - - 0.0
21/04:00am 2.2 -5.8 1.8 97 0.2 WSW 33 72 18 39 - - 0.0
21/03:34am 2.3 -4.7 1.9 97 0.2 WSW 28 57 15 31 - - 0.0
21/03:30am 2.3 -4.3 1.9 97 0.2 WSW 26 59 14 32 - - 0.0
21/03:00am 2.4 -4.6 2.1 98 0.1 WSW 28 48 15 26 - - 0.0
21/02:30am 2.4 -3.4 2.1 98 0.1 WSW 22 46 12 25 - - 0.0
21/02:00am 2.4 -3.4 2.1 98 0.1 WSW 22 48 12 26 - - 0.0
21/01:30am 2.5 -2.7 2.2 98 0.1 WSW 19 37 10 20 - - 0.0
21/01:00am 2.5 -3.7 2.2 98 0.1 WSW 24 52 13 28 - - 0.0
21/12:30am 2.4 -3.4 2.1 98 0.1 WSW 22 43 12 23 - - 0.0
21/12:00am 2.6 -3.2 2.3 98 0.1 WSW 22 43 12 23 - - 0.0
 
Date/Time
EST
Temp
°C
App
Temp
°C
Dew
Point
°C
Rel
Hum
%
Delta-T
°C
Wind Press
QNH
hPa
Press
MSL
hPa
Rain since
9am
mm
Dir  Spd
km/h
Gust
km/h
Spd
kts
Gust
kts
20/11:30pm 2.4 -3.4 2.1 98 0.1 WSW 22 44 12 24 - - 0.0
20/11:00pm 2.3 -3.9 2.0 98 0.1 WSW 24 52 13 28 - - 0.0
20/10:30pm 2.1 -3.4 1.8 98 0.1 WSW 20 39 11 21 - - 0.0
20/10:00pm 1.6 -3.0 1.3 98 0.1 WSW 15 32 8 17 - - 0.0
20/09:30pm 1.4 -3.3 1.1 98 0.1 SW 15 33 8 18 - - 0.0
20/09:00pm 1.3 -4.1 1.0 98 0.1 SW 19 33 10 18 - - 0.0
20/08:30pm 1.0 -4.5 0.7 98 0.1 SW 19 35 10 19 - - 0.0
20/08:00pm 0.9 -6.7 0.6 98 0.1 SW 30 48 16 26 - - 0.0
20/07:43pm 0.8 -6.4 0.5 98 0.1 SW 28 50 15 27 - - 0.0
20/07:30pm 0.8 -5.3 0.5 98 0.1 SW 22 43 12 23 - - 0.0
20/07:00pm 0.7 -6.5 0.4 98 0.1 SW 28 39 15 21 - - 0.0
20/06:30pm 0.5 -6.4 0.1 97 0.2 SW 26 41 14 22 - - 0.0
20/06:00pm 0.4 -5.8 0.0 97 0.2 SW 22 33 12 18 - - 0.0
20/05:30pm 0.3 -7.0 -0.1 97 0.2 SW 28 43 15 23 - - 0.0
20/05:00pm 0.4 -7.3 -0.3 95 0.3 SW 30 44 16 24 - - 0.0
20/04:30pm 1.1 -6.6 0.2 94 0.4 SW 30 43 16 23 - - 0.0
20/04:00pm 1.8 -5.4 0.8 93 0.4 SW 28 43 15 23 - - 0.0
20/03:30pm 2.2 -4.6 0.9 91 0.6 SW 26 39 14 21 - - 0.0
20/03:00pm 2.7 -4.5 0.9 88 0.8 SW 28 44 15 24 - - 0.0
20/02:39pm 2.8 -4.3 1.3 90 0.6 SW 28 46 15 25 - - 0.0
20/02:30pm 2.5 -5.4 1.2 91 0.6 SW 32 43 17 23 - - 0.0
20/02:19pm 2.4 -4.7 1.4 93 0.4 SW 28 46 15 25 - - 0.0
20/02:00pm 2.6 -5.2 1.7 94 0.4 SW 32 48 17 26 - - 0.0
20/01:31pm 2.4 -4.7 1.1 91 0.6 SW 28 46 15 25 - - 0.0
20/01:30pm 2.2 -4.6 0.7 90 0.6 SW 26 46 14 25 - - 0.0
20/01:00pm 4.3 -1.9 -0.1 73 1.9 SW 22 37 12 20 - - 0.0
20/12:30pm 5.4 -1.7 -1.1 63 2.7 SW 26 37 14 20 - - 0.0
20/12:00pm 5.2 -1.9 -1.0 64 2.6 SW 26 41 14 22 - - 0.0
20/11:46am 4.9 -2.6 -1.5 63 2.6 SW 28 46 15 25 - - 0.0
20/11:30am 4.9 -3.0 -1.5 63 2.6 SSW 30 44 16 24 - - 0.0
20/11:06am 4.8 -3.2 -2.1 61 2.8 SSW 30 48 16 26 - - 0.0
20/11:00am 4.5 -3.4 -1.9 63 2.6 SW 30 46 16 25 - - 0.0
20/10:30am 4.4 -4.1 -2.0 63 2.6 SW 33 52 18 28 - - 0.0
20/10:00am 4.5 -3.5 -2.4 61 2.8 SW 30 48 16 26 - - 0.0
20/09:41am 4.2 -4.2 -2.2 63 2.6 SW 32 50 17 27 - - 0.0
20/09:30am 4.0 -4.4 -2.2 64 2.5 SW 32 46 17 25 - - 0.0
20/09:00am 3.3 -5.2 -3.1 63 2.5 SW 32 52 17 28 - - 0.0
20/08:30am 3.2 -5.4 -4.0 59 2.7 SW 32 50 17 27 - - 0.0
20/08:05am 2.3 -5.8 -3.4 66 2.2 SW 30 48 16 26 - - 0.0
20/08:00am 2.0 -5.4 -3.7 66 2.3 SW 26 37 14 20 - - 0.0
20/07:30am 1.6 -5.5 -4.3 65 2.3 SW 24 39 13 21 - - 0.0
20/07:00am 2.2 -6.1 -4.5 61 2.6 SSW 30 43 16 23 - - 0.0
20/06:30am 1.6 -6.4 -5.8 58 2.7 SSW 28 41 15 22 - - 0.0
20/06:00am 0.8 -6.9 -6.5 58 2.6 SSW 26 39 14 21 - - 0.0
20/05:30am 0.7 -7.4 -6.6 58 2.6 SSW 28 43 15 23 - - 0.0
20/05:01am 1.1 -7.1 -7.6 52 3.0 SSW 28 46 15 25 - - 0.0
20/05:00am 1.1 -7.5 -7.6 52 3.0 SSW 30 46 16 25 - - 0.0
20/04:30am 0.6 -8.3 -7.1 56 2.7 SSW 32 46 17 25 - - 0.0
20/04:16am 0.8 -8.1 -7.0 56 2.7 SSW 32 56 17 30 - - 0.0
20/04:00am 0.6 -7.9 -6.9 57 2.6 SSW 30 44 16 24 - - 0.0
20/03:50am 0.6 -7.9 -6.7 58 2.6 SSW 30 48 16 26 - - 0.0
20/03:30am 0.3 -8.5 -5.9 63 2.2 SSW 32 46 17 25 - - 0.0
20/03:00am -0.3 -8.6 -4.5 73 1.5 SSW 30 44 16 24 - - 0.0
20/02:30am -0.4 -8.8 -1.2 94 0.3 SSW 33 44 18 24 - - 0.0
20/02:00am -1.5 -9.1 -2.1 96 0.2 SSW 28 37 15 20 - - 0.0
20/01:30am -1.2 -8.0 -1.6 97 0.1 SSW 24 35 13 19 - - 0.0
20/01:00am -1.2 -7.6 -1.6 97 0.1 SSW 22 32 12 17 - - 0.0
20/12:30am -1.1 -7.5 -1.5 97 0.1 SSW 22 32 12 17 - - 0.0
20/12:00am -1.1 -7.5 -1.5 97 0.1 SSW 22 32 12 17 - - 0.0
 
Date/Time
EST
Temp
°C
App
Temp
°C
Dew
Point
°C
Rel
Hum
%
Delta-T
°C
Wind Press
QNH
hPa
Press
MSL
hPa
Rain since
9am
mm
Dir  Spd
km/h
Gust
km/h
Spd
kts
Gust
kts
19/11:30pm -1.2 -7.6 -1.6 97 0.1 SSW 22 32 12 17 - - 0.0
19/11:00pm -1.2 -7.6 -1.6 97 0.1 SSW 22 32 12 17 - - 0.0
19/10:30pm -1.3 -7.3 -1.7 97 0.1 SSW 20 30 11 16 - - 0.0
19/10:00pm -1.4 -7.4 -1.8 97 0.1 SSW 20 30 11 16 - - 0.0
19/09:30pm -1.3 -7.7 -1.7 97 0.1 SW 22 32 12 17 - - 0.0
19/09:00pm -1.0 -8.1 -1.4 97 0.1 SW 26 35 14 19 - - 0.0
19/08:30pm -1.0 -8.1 -1.4 97 0.1 SW 26 35 14 19 - - 0.0
19/08:00pm -0.8 -6.8 -1.2 97 0.1 SW 20 33 11 18 - - 0.0
19/07:30pm -0.7 -7.0 -1.3 96 0.2 WSW 22 35 12 19 - - 0.0
19/07:00pm -0.4 -7.1 -1.0 96 0.2 SW 24 33 13 18 - - 0.0
19/06:30pm -0.3 -7.0 -0.9 96 0.2 SW 24 35 13 19 - - 0.0
19/06:00pm -0.2 -6.9 -0.8 96 0.2 SW 24 39 13 21 - - 0.0
19/05:30pm 0.1 -6.1 -0.6 95 0.3 WSW 22 35 12 19 - - 0.0
19/05:00pm 0.4 -5.8 -0.5 94 0.4 WSW 22 35 12 19 - - 0.0
19/04:30pm 1.3 -4.4 0.3 93 0.4 WSW 20 35 11 19 - - 0.0
19/04:00pm 2.6 -3.0 -0.2 82 1.2 W 19 33 10 18 - - 0.0
19/03:30pm 3.6 -2.1 -0.4 75 1.7 WSW 19 30 10 16 - - 0.0
19/03:00pm 4.3 -1.3 -0.3 72 1.9 W 19 33 10 18 - - 0.0
19/02:30pm 4.6 -0.9 0.4 74 1.8 W 19 30 10 16 - - 0.0
19/02:00pm 5.2 0.3 1.9 79 1.5 W 17 26 9 14 - - 0.0
19/01:30pm 4.8 0.1 1.1 77 1.6 W 15 32 8 17 - - 0.0
19/01:00pm 5.6 0.6 1.5 75 1.8 WNW 17 28 9 15 - - 0.0
19/12:30pm 6.0 1.7 1.2 71 2.1 WNW 13 26 7 14 - - 0.0
19/12:00pm 5.5 1.1 0.1 68 2.3 WNW 13 26 7 14 - - 0.0
19/11:30am 5.5 1.2 0.9 72 2.0 WNW 13 24 7 13 - - 0.0
19/11:00am 5.0 0.7 1.1 76 1.7 WNW 13 26 7 14 - - 0.0
19/10:30am 4.2 0.2 0.5 77 1.6 WNW 11 20 6 11 - - 0.0
19/10:00am 4.2 0.6 0.9 79 1.4 WNW 9 15 5 8 - - 0.0
19/09:30am 3.5 0.2 0.0 78 1.5 WNW 7 13 4 7 - - 0.0
19/09:00am 3.0 0.5 1.4 89 0.7 WNW 4 7 2 4 - - 0.0
19/08:30am 2.0 -1.0 1.1 94 0.4 NW 6 7 3 4 - - 0.0
19/08:00am 0.3 -2.9 -0.4 95 0.3 WNW 6 9 3 5 - - 0.0
19/07:30am -0.2 -3.5 -0.9 95 0.3 WNW 6 9 3 5 - - 0.0
19/07:00am 0.0 -3.2 -0.8 94 0.3 W 6 7 3 4 - - 0.0
19/06:30am 0.2 -2.6 -0.6 94 0.3 W 4 6 2 3 - - 0.0
19/06:00am 0.1 -2.7 -0.7 94 0.3 WSW 4 4 2 2 - - 0.0
19/05:30am 0.1 -2.7 -0.7 94 0.3 SW 4 4 2 2 - - 0.0
19/05:00am 0.3 -2.1 -0.5 94 0.3 WNW 2 2 1 1 - - 0.0
19/04:30am 0.1 -2.0 -0.9 93 0.4 CALM 0 0 0 0 - - 0.0
19/04:00am 0.8 -1.6 -0.2 93 0.4 ESE 2 6 1 3 - - 0.0
19/03:30am 1.1 -1.2 0.2 94 0.4 ESE 2 6 1 3 - - 0.0
19/03:00am 1.0 -1.3 0.1 94 0.4 SE 2 6 1 3 - - 0.0
19/02:30am 1.2 -1.1 0.3 94 0.4 SE 2 9 1 5 - - 0.0
19/02:00am 1.3 -1.8 0.4 94 0.4 SE 6 11 3 6 - - 0.0
19/01:30am 1.3 -1.8 0.4 94 0.4 SE 6 15 3 8 - - 0.0
19/01:00am 1.0 -1.7 0.1 94 0.4 ESE 4 13 2 7 - - 0.0
19/12:30am 1.4 -1.8 0.5 94 0.4 SE 7 15 4 8 - - 0.0
19/12:00am 1.3 -2.3 0.4 94 0.4 SSE 9 13 5 7 - - 0.0
 
Date/Time
EST
Temp
°C
App
Temp
°C
Dew
Point
°C
Rel
Hum
%
Delta-T
°C
Wind Press
QNH
hPa
Press
MSL
hPa
Rain since
9am
mm
Dir  Spd
km/h
Gust
km/h
Spd
kts
Gust
kts
18/11:30pm 0.7 -3.4 0.1 96 0.2 SSE 11 15 6 8 - - 0.0
18/11:00pm -0.2 -4.0 -0.6 97 0.1 S 9 15 5 8 - - 0.0
18/10:30pm -0.1 -4.6 -0.5 97 0.2 SSW 13 19 7 10 - - 0.0
18/10:00pm 0.0 -4.9 -0.4 97 0.2 SSW 15 19 8 10 - - 0.0
18/09:30pm 0.4 -4.8 0.0 97 0.2 SW 17 28 9 15 - - 0.0
18/09:00pm 0.9 -4.8 0.5 97 0.2 SW 20 32 11 17 - - 0.0
18/08:30pm 0.9 -5.2 0.5 97 0.2 SW 22 33 12 18 - - 0.0
18/08:00pm 1.2 -4.5 0.8 97 0.2 SW 20 35 11 19 - - 0.0
18/07:30pm 1.4 -4.2 1.0 97 0.2 SW 20 37 11 20 - - 0.0
18/07:00pm 1.0 -5.1 0.4 96 0.2 SW 22 44 12 24 - - 0.0
18/06:30pm 1.3 -5.5 0.7 96 0.3 SW 26 43 14 23 - - 0.0
18/06:00pm 1.8 -4.2 1.1 95 0.3 SW 22 41 12 22 - - 0.0
18/05:30pm 2.2 -3.4 1.5 95 0.3 SW 20 41 11 22 - - 0.0
18/05:00pm 2.4 -3.9 1.7 95 0.3 SW 24 35 13 19 - - 0.0
18/04:30pm 2.8 -3.4 1.9 94 0.4 SW 24 37 13 20 - - 0.0
18/04:00pm 5.0 0.3 3.2 88 0.8 SW 17 37 9 20 - - 0.0
18/03:30pm 5.1 0.1 1.2 76 1.7 SW 17 37 9 20 - - 0.0
18/03:00pm 6.3 1.8 2.2 75 1.9 SW 15 33 8 18 - - 0.0
18/02:30pm 6.6 1.6 1.3 69 2.4 SW 17 33 9 18 - - 0.0
18/02:00pm 6.5 1.8 0.6 66 2.6 SW 15 33 8 18 - - 0.0
18/01:30pm 6.3 0.4 -0.9 60 3.1 SW 20 39 11 21 - - 0.0
18/01:00pm 7.9 2.2 -0.8 54 3.8 SW 19 30 10 16 - - 0.0
18/12:30pm 7.3 1.5 -1.6 53 3.8 SW 19 39 10 21 - - 0.0
18/12:00pm 7.0 0.8 -3.0 49 4.1 SW 20 43 11 23 - - 0.0
18/11:41am 6.9 -0.6 -1.7 54 3.6 SW 28 48 15 26 - - 0.0
18/11:30am 7.5 2.2 -0.9 55 3.6 SW 17 30 9 16 - - 0.0

Other Formats:

Comma delimited format used in spreadsheet applications
http://www.bom.gov.au/fwo/IDN60801/IDN60801.95925.axf

JavaScript Object Notation format (JSON) in row-major order
http://www.bom.gov.au/fwo/IDN60801/IDN60801.95925.json